Idaho City, Idaho
Current Conditions -  °F | °C
As of 7:43 AM on Tuesday 27 Jan 2015 (Local Time) from KBOI Reporting Station
Moderate Fog Moderate Fog  
Wind Chill: 28°   Ceiling: Unl
Heat Index: 28°   Visibility: 0.25mi
Dew Point: 27°   Wind: 0mph
Humidity: 93%   Direction: NA
Pressure: 30.11"   Gusts: NA
Location:  43.83°N, 115.83°W
Report Text: KBOI 271443Z 00000KT 1/4SM R10R/1800V2400FT FZFG SCT001 M02/M03 A3011 RMK AO2
Loading
Personal Weather Stations






























Interactive Weather Map New forecast layout! Learn more

10-Day Weather Forecast

Advertisements
Track Severe Weather on mobile